Kirishima Maru No.5 — JD2506 — position and weather

sailwx.info

Track history (hours):
 
Tides and Currents Weather Stations Pressure Air Temp Water Temp Dewpoint Dewpoint Depression Visibility Wind Speed Wind Dir Waves Ship Positions

Kirishima Maru No.5

Last reported at 2017-Jan-16 19:33 UTC. Time now 2017-Jan-19 04:41 UTC.
Position N 34°02' E 134°59'.

Length 105 m; draft 5.4 m.

Type: Tanker. MMSI: 431000338.

Date/timePositionNaut miles runAvg speedWind from/ knotsBaromVisibWave heightAir tempDewpointWater temp
2017-Jan-16 19:33N 34°02' E 134°59'1916.0
2017-Jan-16 18:21N 34°21' E 134°59'1215.2
2017-Jan-16 17:33N 34°33' E 135°02'4 0.1
2017-Jan-15 06:32N 34°37' E 135°01'1110.7
2017-Jan-15 05:32N 34°27' E 135°04'1212.7
2017-Jan-15 04:33N 34°15' E 134°59'  
2017-Jan-10 18:33N 34°07' E 134°59'1915.4
2017-Jan-10 17:20N 34°26' E 135°00'1114.3
2017-Jan-10 16:33N 34°37' E 135°01'2 0.0
2017-Jan-09 09:33N 34°38' E 134°59'1211.7
2017-Jan-09 08:34N 34°26' E 135°03'1414.0
2017-Jan-09 07:33N 34°13' E 134°59'  
Track history (hours):
 
Tides and Currents Weather Stations Pressure Air Temp Water Temp Dewpoint Dewpoint Depression Visibility Wind Speed Wind Dir Waves Ship Positions

Kirishima Maru No.5

Last reported at 2017-Jan-16 19:33 UTC. Time now 2017-Jan-19 04:41 UTC.
Position N 34°02' E 134°59'.

Length 105 m; draft 5.4 m.

Type: Tanker. MMSI: 431000338.

Date/timePositionNaut miles runAvg speedWind from/ knotsBaromVisibWave heightAir tempDewpointWater temp
2017-Jan-16 19:33N 34°02' E 134°59'1916.0
2017-Jan-16 18:21N 34°21' E 134°59'1215.2
2017-Jan-16 17:33N 34°33' E 135°02'4 0.1
2017-Jan-15 06:32N 34°37' E 135°01'1110.7
2017-Jan-15 05:32N 34°27' E 135°04'1212.7
2017-Jan-15 04:33N 34°15' E 134°59'  
2017-Jan-10 18:33N 34°07' E 134°59'1915.4
2017-Jan-10 17:20N 34°26' E 135°00'1114.3
2017-Jan-10 16:33N 34°37' E 135°01'2 0.0
2017-Jan-09 09:33N 34°38' E 134°59'1211.7
2017-Jan-09 08:34N 34°26' E 135°03'1414.0
2017-Jan-09 07:33N 34°13' E 134°59'  

Dump ship's entire track history